Impacts TAF Board
For situational awareness. Not to be used for flight planning purposes.
IDs:

KJAN - Jackson/Evers Intl, MS, US

Issued at 1735 UTC 07 Dec 2021
Updated at 1934 UTC 07 Dec 2021
Potential Impact None Slight Moderate High
Time<<08/08Z 08/09Z 08/10Z 08/11Z 08/12Z 08/13Z 08/14Z 08/15Z 08/16Z 08/17Z 08/18Z 08/19Z 08/20Z>>
Type PRVL PRVL PRVL PRVL PRVL PRVL PRVL PRVL PRVL PRVL
VIS 4 4 4 4 4 4 4 4 >6 >6
CIG 5 5 5 5 5 5 5 5 10 10
Cover OVC OVC OVC OVC OVC OVC OVC OVC BKN BKN
FltCat IFR IFR IFR IFR IFR IFR IFR IFR MVFR MVFR
WX BR BR BR BR BR BR BR BR -- --
WDir VRB VRB VRB VRB VRB VRB VRB VRB 360 360
WSpd 0 0 0 0 0 0 0 0 5 5
WGst -- -- -- -- -- -- -- -- -- --
WSHgt -- -- -- -- -- -- -- -- -- --
WSDir -- -- -- -- -- -- -- -- -- --
WSSpd -- -- -- -- -- -- -- -- -- --
R16/34
XWnd VRB VRB VRB VRB VRB VRB VRB VRB 2 2 0 0 0
HWnd VRB VRB VRB VRB VRB VRB VRB VRB -5 -5 0 0 0
Raw TAF
KJAN 071735Z 0718/0818 09006KT P6SM VCSH OVC015
  FM080200 00000KT P6SM OVC008
  FM080500 00000KT 4SM BR OVC005
  FM081600 36005KT P6SM BKN010


METAR Board
Radar Display
Forecast Discussion
For situational awareness. Not to be used for flight planning purposes.